createdAt,value
2018-09-26T00:00:00.175Z,97285.49
2018-09-26T00:02:37.835Z,97282.25
2018-09-26T00:05:06.298Z,97274.48
2018-09-26T00:07:34.735Z,97278.77
2018-09-26T00:10:03.249Z,97289.03
2018-09-26T00:12:31.682Z,97281.70
2018-09-26T00:15:00.074Z,97287.52
2018-09-26T00:17:28.534Z,97303.23
2018-09-26T00:19:56.925Z,97292.41
2018-09-26T00:22:25.374Z,97288.48
2018-09-26T00:24:53.774Z,97290.17
2018-09-26T00:27:22.213Z,97279.91
2018-09-26T00:29:50.629Z,97275.06
2018-09-26T00:32:19.090Z,97276.88
2018-09-26T00:34:47.597Z,97266.38
2018-09-26T00:37:15.978Z,97263.34
2018-09-26T00:39:44.414Z,97254.70
2018-09-26T00:42:12.813Z,97251.77
2018-09-26T00:44:41.278Z,97245.41
2018-09-26T00:47:09.666Z,97243.27
2018-09-26T00:49:38.142Z,97229.91
2018-09-26T00:52:06.529Z,97230.98
2018-09-26T00:54:34.953Z,97229.43
2018-09-26T00:57:03.593Z,97233.85
2018-09-26T00:59:32.013Z,97244.73
2018-09-26T01:02:00.442Z,97244.64
2018-09-26T01:04:28.870Z,97225.01
2018-09-26T01:06:57.290Z,97206.52
2018-09-26T01:09:25.758Z,97211.27
2018-09-26T01:11:54.130Z,97209.23
2018-09-26T01:14:22.586Z,97209.34
2018-09-26T01:16:50.984Z,97198.05
2018-09-26T01:19:19.409Z,97199.28
2018-09-26T01:21:47.799Z,97185.88
2018-09-26T01:24:16.242Z,97186.16
2018-09-26T01:26:44.645Z,97183.36
2018-09-26T01:29:13.074Z,97176.88
2018-09-26T01:31:41.476Z,97169.60
2018-09-26T01:34:09.889Z,97173.05
2018-09-26T01:36:38.282Z,97167.76
2018-09-26T01:39:08.330Z,97161.27
2018-09-26T01:41:36.718Z,97151.78
2018-09-26T01:44:05.138Z,97149.21
2018-09-26T01:46:33.569Z,97145.88
2018-09-26T01:49:02.023Z,97145.70
2018-09-26T01:51:30.453Z,97141.77
2018-09-26T01:53:58.846Z,97145.38
2018-09-26T01:56:27.278Z,97147.67
2018-09-26T01:58:55.686Z,97143.21
2018-09-26T02:01:24.110Z,97135.20
2018-09-26T02:03:52.559Z,97138.16
2018-09-26T02:06:20.945Z,97138.77
2018-09-26T02:08:49.349Z,97140.54
2018-09-26T02:11:17.800Z,97136.08
2018-09-26T02:13:46.178Z,97134.54
2018-09-26T02:16:14.593Z,97129.54
2018-09-26T02:18:42.970Z,97136.47
2018-09-26T02:21:11.390Z,97137.13
2018-09-26T02:23:39.788Z,97140.37
2018-09-26T02:26:08.259Z,97132.88
2018-09-26T02:28:36.657Z,97127.54
2018-09-26T02:31:05.134Z,97132.97
2018-09-26T02:33:33.554Z,97145.39
2018-09-26T02:36:01.967Z,97132.72
2018-09-26T02:38:30.386Z,97136.23
2018-09-26T02:40:58.798Z,97135.64
2018-09-26T02:43:27.217Z,97136.61
2018-09-26T02:45:55.609Z,97135.64
2018-09-26T02:48:29.521Z,97131.31
2018-09-26T02:50:57.946Z,97131.38
2018-09-26T02:53:26.369Z,97139.43
2018-09-26T02:55:54.895Z,97139.40
2018-09-26T02:58:23.274Z,97136.64
2018-09-26T03:00:51.665Z,97135.25
2018-09-26T03:03:20.082Z,97125.07
2018-09-26T03:05:48.468Z,97124.67
2018-09-26T03:08:16.929Z,97124.43
2018-09-26T03:10:45.370Z,97118.11
2018-09-26T03:13:13.784Z,97116.09
2018-09-26T03:15:42.169Z,97112.89
2018-09-26T03:18:10.586Z,97106.05
2018-09-26T03:20:39.001Z,97104.84
2018-09-26T03:23:07.442Z,97106.42
2018-09-26T03:25:35.834Z,97107.59
2018-09-26T03:28:04.245Z,97108.28
2018-09-26T03:30:32.630Z,97106.25
2018-09-26T03:33:01.977Z,97103.71
2018-09-26T03:35:30.522Z,97101.84
2018-09-26T03:37:58.902Z,97118.72
2018-09-26T03:40:27.317Z,97121.26
2018-09-26T03:42:55.704Z,97120.16
2018-09-26T03:45:24.122Z,97119.98
2018-09-26T03:47:52.549Z,97113.32
2018-09-26T03:50:20.978Z,97110.48
2018-09-26T03:52:49.373Z,97108.32
2018-09-26T03:55:17.793Z,97105.48
2018-09-26T03:57:46.177Z,97109.86
2018-09-26T04:00:14.622Z,97100.55
2018-09-26T04:02:42.998Z,97095.58
2018-09-26T04:05:11.442Z,97097.44
2018-09-26T04:07:39.846Z,97097.44
2018-09-26T04:10:08.743Z,97103.47
2018-09-26T04:12:37.197Z,97098.49
2018-09-26T04:15:05.617Z,97093.19
2018-09-26T04:17:34.026Z,97097.08
2018-09-26T04:20:03.061Z,97090.08
2018-09-26T04:22:31.450Z,97095.28
2018-09-26T04:24:59.899Z,97094.24
2018-09-26T04:27:28.596Z,97102.41
2018-09-26T04:29:56.921Z,97097.48
2018-09-26T04:32:25.375Z,97097.98
2018-09-26T04:34:53.971Z,97106.09
2018-09-26T04:37:22.406Z,97103.49
2018-09-26T04:39:50.782Z,97099.94
2018-09-26T04:42:19.194Z,97088.73
2018-09-26T04:44:47.593Z,97087.27
2018-09-26T04:47:16.013Z,97092.83
2018-09-26T04:49:44.458Z,97088.75
2018-09-26T04:52:12.890Z,97089.78
2018-09-26T04:54:41.270Z,97091.92
2018-09-26T04:57:09.805Z,97090.37
2018-09-26T04:59:39.810Z,97080.55
2018-09-26T05:02:08.234Z,97089.67
2018-09-26T05:04:36.651Z,97084.16
2018-09-26T05:07:05.114Z,97094.26
2018-09-26T05:09:33.558Z,97100.14
2018-09-26T05:12:02.090Z,97108.20
2018-09-26T05:14:30.493Z,97110.73
2018-09-26T05:16:58.893Z,97108.75
2018-09-26T05:19:27.328Z,97109.33
2018-09-26T05:21:55.750Z,97112.35
2018-09-26T05:24:24.186Z,97106.92
2018-09-26T05:26:52.610Z,97103.48
2018-09-26T05:29:21.033Z,97106.08
2018-09-26T05:31:49.443Z,97112.87
2018-09-26T05:34:17.870Z,97109.48
2018-09-26T05:36:46.262Z,97116.20
2018-09-26T05:39:14.734Z,97120.31
2018-09-26T05:41:43.160Z,97129.61
2018-09-26T05:44:11.608Z,97126.73
2018-09-26T05:46:40.326Z,97127.09
2018-09-26T05:49:08.800Z,97129.61
2018-09-26T05:51:37.220Z,97131.88
2018-09-26T05:54:05.646Z,97142.36
2018-09-26T05:56:34.047Z,97143.80
2018-09-26T05:59:02.959Z,97143.60
2018-09-26T06:01:31.346Z,97143.58
2018-09-26T06:03:59.769Z,97141.19
2018-09-26T06:06:28.158Z,97135.05
2018-09-26T06:08:56.590Z,97127.25
2018-09-26T06:11:25.041Z,97123.60
2018-09-26T06:13:53.427Z,97121.72
2018-09-26T06:16:21.866Z,97130.53
2018-09-26T06:18:50.323Z,97135.11
2018-09-26T06:21:18.736Z,97133.70
2018-09-26T06:23:47.130Z,97141.82
2018-09-26T06:26:15.901Z,97144.53
2018-09-26T06:28:44.289Z,97145.50
2018-09-26T06:31:12.797Z,97153.12
2018-09-26T06:33:41.249Z,97157.24
2018-09-26T06:36:09.681Z,97166.43
2018-09-26T06:38:38.114Z,97162.50
2018-09-26T06:41:06.567Z,97165.17
2018-09-26T06:43:34.944Z,97172.78
2018-09-26T06:46:03.614Z,97161.72
2018-09-26T06:48:32.028Z,97165.08
2018-09-26T06:51:00.442Z,97166.00
2018-09-26T06:53:28.828Z,97154.45
2018-09-26T06:55:57.270Z,97155.50
2018-09-26T06:58:25.777Z,97151.48
2018-09-26T07:00:54.281Z,97157.95
2018-09-26T07:03:22.663Z,97162.02
2018-09-26T07:05:51.174Z,97166.09
2018-09-26T07:08:19.609Z,97162.52
2018-09-26T07:10:48.008Z,97156.87
2018-09-26T07:13:16.545Z,97155.39
2018-09-26T07:15:44.995Z,97150.27
2018-09-26T07:18:13.604Z,97144.23
2018-09-26T07:20:42.073Z,97135.48
2018-09-26T07:23:10.586Z,97136.52
2018-09-26T07:25:39.102Z,97130.36
2018-09-26T07:28:07.590Z,97120.47
2018-09-26T07:30:36.058Z,97117.78
2018-09-26T07:33:04.614Z,97116.58
2018-09-26T07:35:33.061Z,97120.95
2018-09-26T07:38:01.473Z,97120.64
2018-09-26T07:40:29.862Z,97120.73
2018-09-26T07:42:58.303Z,97117.67
2018-09-26T07:45:26.758Z,97111.75
2018-09-26T07:47:55.194Z,97110.91
2018-09-26T07:50:23.657Z,97118.92
2018-09-26T07:52:52.296Z,97124.20
2018-09-26T07:55:20.862Z,97122.19
2018-09-26T07:57:49.402Z,97118.42
2018-09-26T08:00:18.074Z,97116.75
2018-09-26T08:02:46.474Z,97124.66
2018-09-26T08:05:14.941Z,97131.27
2018-09-26T08:07:43.433Z,97130.81
2018-09-26T08:10:11.905Z,97131.36
2018-09-26T08:12:40.330Z,97130.07
2018-09-26T08:15:08.800Z,97132.17
2018-09-26T08:17:37.218Z,97127.42
2018-09-26T08:20:05.712Z,97125.22
2018-09-26T08:22:34.185Z,97125.94
2018-09-26T08:25:03.070Z,97131.11
2018-09-26T08:27:31.482Z,97126.09
2018-09-26T08:30:00.046Z,97131.22
2018-09-26T08:32:28.340Z,97132.51
2018-09-26T08:34:56.774Z,97123.02
2018-09-26T08:37:25.186Z,97125.16
2018-09-26T08:39:53.621Z,97126.98
2018-09-26T08:42:22.033Z,97134.95
2018-09-26T08:44:50.506Z,97125.92
2018-09-26T08:47:18.962Z,97129.89
2018-09-26T08:49:47.507Z,97132.88
2018-09-26T08:52:15.978Z,97130.09
2018-09-26T08:54:44.509Z,97129.24
2018-09-26T08:57:12.910Z,97123.09
2018-09-26T08:59:41.423Z,97124.86
2018-09-26T09:02:09.886Z,97134.72
2018-09-26T09:04:38.291Z,97132.05
2018-09-26T09:07:06.858Z,97131.24
2018-09-26T09:09:35.302Z,97133.83
2018-09-26T09:12:04.042Z,97131.25
2018-09-26T09:14:32.650Z,97127.47
2018-09-26T09:17:00.994Z,97115.17
2018-09-26T09:19:29.390Z,97122.48
2018-09-26T09:21:57.821Z,97126.05
2018-09-26T09:24:26.304Z,97124.53
2018-09-26T09:26:55.046Z,97122.77
2018-09-26T09:29:23.541Z,97120.06
2018-09-26T09:31:52.052Z,97107.88
2018-09-26T09:34:20.525Z,97104.97
2018-09-26T09:36:49.066Z,97101.64
2018-09-26T09:39:17.625Z,97106.41
2018-09-26T09:41:46.070Z,97101.77
2018-09-26T09:44:15.154Z,97096.23
2018-09-26T09:46:43.781Z,97089.05
2018-09-26T09:49:12.314Z,97095.63
2018-09-26T09:51:40.882Z,97094.32
2018-09-26T09:54:09.301Z,97097.35
2018-09-26T09:56:37.747Z,97095.11
2018-09-26T09:59:06.278Z,97100.77
2018-09-26T10:01:34.741Z,97094.75
2018-09-26T10:04:03.638Z,97086.11
2018-09-26T10:06:32.050Z,97083.67
2018-09-26T10:09:02.520Z,97094.94
2018-09-26T10:11:30.934Z,97096.58
2018-09-26T10:13:59.357Z,97096.46
2018-09-26T10:16:27.758Z,97090.52
2018-09-26T10:18:56.197Z,97103.71
2018-09-26T10:21:24.692Z,97096.67
2018-09-26T10:23:53.370Z,97094.96
2018-09-26T10:26:21.895Z,97095.41
2018-09-26T10:28:50.255Z,97098.41
2018-09-26T10:31:18.722Z,97097.25
2018-09-26T10:33:47.169Z,97092.91
2018-09-26T10:36:15.583Z,97094.22
2018-09-26T10:38:44.038Z,97090.31
2018-09-26T10:41:12.458Z,97090.17
2018-09-26T10:43:41.250Z,97096.78
2018-09-26T10:46:09.709Z,97098.61
2018-09-26T10:48:38.230Z,97103.98
2018-09-26T10:51:06.686Z,97102.80
2018-09-26T10:53:35.093Z,97087.60
2018-09-26T10:56:03.575Z,97087.66
2018-09-26T10:58:31.995Z,97086.56
2018-09-26T11:01:00.457Z,97089.67
2018-09-26T11:03:28.892Z,97091.78
2018-09-26T11:05:57.388Z,97099.09
2018-09-26T11:08:25.901Z,97097.36
2018-09-26T11:10:56.324Z,97090.98
2018-09-26T11:13:24.740Z,97085.48
2018-09-26T11:15:53.211Z,97081.39
2018-09-26T11:18:22.006Z,97086.67
2018-09-26T11:20:50.483Z,97077.16
2018-09-26T11:23:18.934Z,97080.28
2018-09-26T11:25:47.499Z,97074.63
2018-09-26T11:28:16.004Z,97069.77
2018-09-26T11:30:45.885Z,97073.23
2018-09-26T11:33:14.360Z,97065.70
2018-09-26T11:35:43.516Z,97068.72
2018-09-26T11:38:11.975Z,97066.77
2018-09-26T11:40:42.254Z,97060.13
2018-09-26T11:43:10.737Z,97068.20
2018-09-26T11:45:39.571Z,97067.36
2018-09-26T11:48:08.034Z,97071.88
2018-09-26T11:50:37.195Z,97066.77
2018-09-26T11:53:05.739Z,97060.43
2018-09-26T11:55:34.168Z,97054.97
2018-09-26T11:58:03.043Z,97048.83
2018-09-26T12:00:31.500Z,97043.49
2018-09-26T12:02:59.954Z,97045.21
2018-09-26T12:05:28.370Z,97040.56
2018-09-26T12:07:56.842Z,97046.05
2018-09-26T12:10:25.859Z,97042.38
2018-09-26T12:12:54.299Z,97039.50
2018-09-26T12:15:23.015Z,97038.69
2018-09-26T12:17:51.538Z,97026.77
2018-09-26T12:20:20.781Z,97033.69
2018-09-26T12:22:49.314Z,97029.89
2018-09-26T12:25:17.866Z,97036.31
2018-09-26T12:27:46.451Z,97032.38
2018-09-26T12:30:14.930Z,97030.73
2018-09-26T12:32:43.374Z,97029.29
2018-09-26T12:35:11.782Z,97024.64
2018-09-26T12:37:40.229Z,97020.83
2018-09-26T12:40:10.036Z,97022.30
2018-09-26T12:42:38.806Z,97023.00
2018-09-26T12:45:07.327Z,97015.97
2018-09-26T12:47:35.785Z,97013.22
2018-09-26T12:50:04.614Z,97013.12
2018-09-26T12:52:33.019Z,97017.04
2018-09-26T12:55:01.997Z,97018.25
2018-09-26T12:57:30.434Z,97016.33
2018-09-26T12:59:59.049Z,97014.67
2018-09-26T13:02:27.501Z,97012.77
2018-09-26T13:04:55.994Z,97012.41
2018-09-26T13:07:25.663Z,97009.52
2018-09-26T13:09:54.331Z,97004.63
2018-09-26T13:12:23.352Z,97013.02
2018-09-26T13:14:51.801Z,97007.95
2018-09-26T13:17:20.297Z,97001.53
2018-09-26T13:19:48.818Z,97002.81
2018-09-26T13:22:17.487Z,97004.47
2018-09-26T13:24:46.090Z,97004.80
2018-09-26T13:27:14.546Z,97000.45
2018-09-26T13:29:43.171Z,97006.23
2018-09-26T13:32:11.662Z,97003.66
2018-09-26T13:34:40.110Z,96998.27
2018-09-26T13:37:08.570Z,96994.02
2018-09-26T13:39:37.795Z,97003.11
2018-09-26T13:42:06.274Z,96989.94
2018-09-26T13:44:34.715Z,96997.07
2018-09-26T13:47:03.129Z,96999.67
2018-09-26T13:49:31.610Z,96996.42
2018-09-26T13:52:00.085Z,96997.16
2018-09-26T13:54:28.610Z,96995.09
2018-09-26T13:56:56.997Z,97001.88
2018-09-26T13:59:25.430Z,96997.11
2018-09-26T14:01:53.876Z,96985.92
2018-09-26T14:04:22.411Z,96986.61
2018-09-26T14:06:50.955Z,96988.63
2018-09-26T14:09:20.198Z,96984.84
2018-09-26T14:11:51.902Z,96970.64
2018-09-26T14:14:28.707Z,96974.07
2018-09-26T14:17:00.190Z,96978.91
2018-09-26T14:19:30.193Z,96976.44
2018-09-26T14:21:59.378Z,96972.15
2018-09-26T14:24:28.029Z,96974.25
2018-09-26T14:26:56.652Z,96967.37
2018-09-26T14:29:26.745Z,96971.15
2018-09-26T14:31:55.227Z,96970.64
2018-09-26T14:34:24.445Z,96961.73
2018-09-26T14:36:53.058Z,96958.49
2018-09-26T14:39:24.308Z,96961.80
2018-09-26T14:41:53.622Z,96958.64
2018-09-26T14:44:24.516Z,96957.84
2018-09-26T14:46:52.994Z,96952.49
2018-09-26T14:49:23.133Z,96948.83
2018-09-26T14:51:51.586Z,96943.28
2018-09-26T14:54:20.184Z,96948.25
2018-09-26T14:56:48.667Z,96947.74
2018-09-26T14:59:17.353Z,96952.22
2018-09-26T15:01:46.716Z,96946.92
2018-09-26T15:04:16.077Z,96945.70
2018-09-26T15:06:44.487Z,96943.38
2018-09-26T15:09:21.125Z,96935.83
2018-09-26T15:11:50.175Z,96933.28
2018-09-26T15:14:18.710Z,96936.58
2018-09-26T15:16:47.861Z,96931.02
2018-09-26T15:19:17.010Z,96930.80
2018-09-26T15:21:46.552Z,96923.91
2018-09-26T15:24:15.924Z,96931.13
2018-09-26T15:26:47.069Z,96932.94
2018-09-26T15:29:16.026Z,96932.39
2018-09-26T15:31:45.231Z,96928.72
2018-09-26T15:34:20.540Z,96936.20
2018-09-26T15:36:50.325Z,96934.00
2018-09-26T15:39:19.499Z,96932.95
2018-09-26T15:41:49.238Z,96920.72
2018-09-26T15:44:25.555Z,96927.92
2018-09-26T15:46:57.808Z,96923.23
2018-09-26T15:49:32.190Z,96924.85
2018-09-26T15:52:04.089Z,96919.06
2018-09-26T15:54:40.211Z,96923.38
2018-09-26T15:58:00.641Z,96921.66
2018-09-26T16:00:37.676Z,96925.73
2018-09-26T16:03:06.322Z,96930.75
2018-09-26T16:05:37.692Z,96933.62
2018-09-26T16:08:24.091Z,96934.79
2018-09-26T16:10:52.537Z,96939.27
2018-09-26T16:13:25.530Z,96940.32
2018-09-26T16:15:56.354Z,96942.58
2018-09-26T16:18:27.526Z,96946.97
2018-09-26T16:20:56.262Z,96943.92
2018-09-26T16:23:25.577Z,96942.37
2018-09-26T16:25:59.383Z,96948.94
2018-09-26T16:28:30.992Z,96942.64
2018-09-26T16:30:59.775Z,96955.25
2018-09-26T16:33:29.285Z,96956.61
2018-09-26T16:35:59.187Z,96957.24
2018-09-26T16:38:27.603Z,96953.20
2018-09-26T16:40:57.493Z,96956.27
2018-09-26T16:43:32.531Z,96949.89
2018-09-26T16:46:02.762Z,96953.03
2018-09-26T16:48:31.238Z,96950.17
2018-09-26T16:50:59.738Z,96952.22
2018-09-26T16:53:28.187Z,96952.59
2018-09-26T16:55:56.649Z,96959.39
2018-09-26T16:58:25.119Z,96953.53
2018-09-26T17:00:53.541Z,96959.22
2018-09-26T17:03:21.947Z,96956.41
2018-09-26T17:05:50.418Z,96957.53
2018-09-26T17:08:18.816Z,96967.58
2018-09-26T17:10:47.722Z,96967.47
2018-09-26T17:13:16.666Z,96971.41
2018-09-26T17:15:45.314Z,96976.22
2018-09-26T17:18:13.843Z,96973.50
2018-09-26T17:20:42.226Z,96976.63
2018-09-26T17:23:10.639Z,96974.97
2018-09-26T17:25:39.056Z,96978.86
2018-09-26T17:28:07.531Z,96983.89
2018-09-26T17:30:35.893Z,96983.42
2018-09-26T17:33:04.334Z,96981.64
2018-09-26T17:35:32.713Z,96982.25
2018-09-26T17:38:02.021Z,96978.66
2018-09-26T17:40:30.423Z,96980.11
2018-09-26T17:42:59.189Z,96984.16
2018-09-26T17:45:27.622Z,96981.28
2018-09-26T17:47:56.046Z,96986.04
2018-09-26T17:50:24.453Z,96981.66
2018-09-26T17:52:52.942Z,96983.55
2018-09-26T17:55:21.367Z,96985.22
2018-09-26T17:57:49.778Z,96985.78
2018-09-26T18:00:18.259Z,96989.49
2018-09-26T18:02:46.587Z,96995.08
2018-09-26T18:05:15.333Z,96995.30
2018-09-26T18:07:43.715Z,96999.23
2018-09-26T18:10:12.153Z,96998.05
2018-09-26T18:12:40.594Z,96999.11
2018-09-26T18:15:09.063Z,96995.02
2018-09-26T18:17:37.461Z,96994.19
2018-09-26T18:20:05.915Z,96993.69
2018-09-26T18:22:34.317Z,96992.72
2018-09-26T18:25:03.022Z,96993.19
2018-09-26T18:27:31.434Z,96997.20
2018-09-26T18:29:59.893Z,97009.91
2018-09-26T18:32:28.290Z,97012.19
2018-09-26T18:34:56.718Z,97013.97
2018-09-26T18:37:25.101Z,97015.40
2018-09-26T18:39:53.602Z,97017.43
2018-09-26T18:42:22.006Z,97019.88
2018-09-26T18:44:50.477Z,97022.75
2018-09-26T18:47:18.869Z,97027.73
2018-09-26T18:49:47.333Z,97028.92
2018-09-26T18:52:15.779Z,97032.42
2018-09-26T18:54:44.206Z,97030.27
2018-09-26T18:57:13.015Z,97037.66
2018-09-26T18:59:43.943Z,97033.81
2018-09-26T19:02:12.630Z,97037.36
2018-09-26T19:04:41.262Z,97041.16
2018-09-26T19:07:09.672Z,97046.25
2018-09-26T19:09:38.099Z,97046.80
2018-09-26T19:12:06.620Z,97046.71
2018-09-26T19:14:35.958Z,97048.16
2018-09-26T19:17:04.406Z,97047.17
2018-09-26T19:19:32.873Z,97044.37
2018-09-26T19:22:02.025Z,97049.54
2018-09-26T19:24:30.521Z,97051.64
2018-09-26T19:26:59.041Z,97047.44
2018-09-26T19:29:27.418Z,97044.63
2018-09-26T19:31:55.930Z,97041.60
2018-09-26T19:34:24.344Z,97039.28
2018-09-26T19:36:52.789Z,97039.77
2018-09-26T19:39:21.222Z,97044.16
2018-09-26T19:41:49.670Z,97047.47
2018-09-26T19:44:18.088Z,97050.09
2018-09-26T19:46:46.543Z,97051.02
2018-09-26T19:49:15.062Z,97052.79
2018-09-26T19:51:43.462Z,97055.32
2018-09-26T19:54:11.945Z,97062.35
2018-09-26T19:56:40.335Z,97061.33
2018-09-26T19:59:08.814Z,97061.41
2018-09-26T20:01:37.241Z,97061.27
2018-09-26T20:04:05.722Z,97062.28
2018-09-26T20:06:34.114Z,97067.09
2018-09-26T20:09:03.833Z,97068.59
2018-09-26T20:11:32.446Z,97070.72
2018-09-26T20:14:00.883Z,97067.42
2018-09-26T20:16:29.379Z,97060.50
2018-09-26T20:18:57.826Z,97061.04
2018-09-26T20:21:26.213Z,97054.90
2018-09-26T20:23:55.163Z,97059.51
2018-09-26T20:26:23.543Z,97062.47
2018-09-26T20:28:52.135Z,97057.24
2018-09-26T20:31:20.487Z,97052.90
2018-09-26T20:33:49.026Z,97056.01
2018-09-26T20:36:17.582Z,97056.97
2018-09-26T20:38:46.026Z,97058.66
2018-09-26T20:41:14.467Z,97057.81
2018-09-26T20:43:42.905Z,97064.11
2018-09-26T20:46:11.346Z,97063.87
2018-09-26T20:48:40.249Z,97061.56
2018-09-26T20:51:08.711Z,97059.70
2018-09-26T20:53:37.157Z,97060.17
2018-09-26T20:56:06.214Z,97066.08
2018-09-26T20:58:34.610Z,97062.23
2018-09-26T21:01:03.058Z,97061.89
2018-09-26T21:03:31.454Z,97056.20
2018-09-26T21:05:59.903Z,97067.95
2018-09-26T21:08:28.298Z,97065.82
2018-09-26T21:10:56.994Z,97061.63
2018-09-26T21:13:25.461Z,97048.91
2018-09-26T21:15:54.069Z,97048.70
2018-09-26T21:18:22.497Z,97047.22
2018-09-26T21:20:50.921Z,97046.11
2018-09-26T21:23:19.329Z,97040.42
2018-09-26T21:25:47.768Z,97039.31
2018-09-26T21:28:16.158Z,97028.70
2018-09-26T21:30:44.605Z,97031.31
2018-09-26T21:33:12.996Z,97032.62
2018-09-26T21:35:41.417Z,97033.47
2018-09-26T21:38:09.802Z,97029.55
2018-09-26T21:40:38.201Z,97027.78
2018-09-26T21:43:06.647Z,97027.67
2018-09-26T21:45:36.058Z,97025.80
2018-09-26T21:48:04.474Z,97033.36
2018-09-26T21:50:32.901Z,97029.14
2018-09-26T21:53:01.321Z,97030.75
2018-09-26T21:55:29.793Z,97026.09
2018-09-26T21:57:58.205Z,97024.61
2018-09-26T22:00:26.662Z,97024.22
2018-09-26T22:02:55.107Z,97024.52
2018-09-26T22:05:23.494Z,97018.86
2018-09-26T22:07:51.904Z,97011.60
2018-09-26T22:10:20.290Z,97009.00
2018-09-26T22:12:48.711Z,97010.52
2018-09-26T22:15:21.005Z,97013.31
2018-09-26T22:17:49.413Z,97017.33
2018-09-26T22:20:17.934Z,97012.03
2018-09-26T22:22:46.622Z,97004.13
2018-09-26T22:25:15.039Z,97006.48
2018-09-26T22:27:43.471Z,97008.64
2018-09-26T22:30:11.890Z,97009.94
2018-09-26T22:32:40.354Z,97014.54
2018-09-26T22:35:08.785Z,97019.48
2018-09-26T22:37:37.473Z,97014.77
2018-09-26T22:40:05.882Z,97015.05
2018-09-26T22:42:35.034Z,97011.99
2018-09-26T22:45:03.746Z,97002.38
2018-09-26T22:47:32.134Z,97007.03
2018-09-26T22:50:00.597Z,96998.58
2018-09-26T22:52:28.978Z,97001.74
2018-09-26T22:54:57.416Z,96993.75
2018-09-26T22:57:25.803Z,96994.20
2018-09-26T22:59:54.231Z,96993.92
2018-09-26T23:02:22.685Z,96992.89
2018-09-26T23:04:51.109Z,96990.47
2018-09-26T23:07:19.503Z,96985.19
2018-09-26T23:09:47.949Z,96992.44
2018-09-26T23:12:16.357Z,96983.67
2018-09-26T23:14:44.799Z,96984.45
2018-09-26T23:17:13.211Z,96982.66
2018-09-26T23:19:41.670Z,96979.23
2018-09-26T23:22:10.061Z,96982.66
2018-09-26T23:24:38.594Z,96984.70
2018-09-26T23:27:07.217Z,96983.49
2018-09-26T23:29:35.759Z,96980.71
2018-09-26T23:32:04.170Z,96979.69
2018-09-26T23:34:32.594Z,96984.78
2018-09-26T23:37:01.002Z,96978.65
2018-09-26T23:39:29.472Z,96981.53
2018-09-26T23:41:57.877Z,96984.31
2018-09-26T23:44:26.282Z,96980.05
2018-09-26T23:46:54.761Z,96973.27
2018-09-26T23:49:23.202Z,96970.28
2018-09-26T23:51:51.645Z,96962.02
2018-09-26T23:54:20.474Z,96957.27
2018-09-26T23:56:48.901Z,96958.84
2018-09-26T23:59:17.294Z,96956.91
